createdAt,value
2023-06-10T00:00:15.970Z,17.86
2023-06-10T00:02:45.545Z,17.83
2023-06-10T00:05:13.849Z,17.80
2023-06-10T00:07:42.638Z,17.76
2023-06-10T00:10:11.761Z,17.70
2023-06-10T00:12:42.922Z,17.73
2023-06-10T00:15:12.260Z,17.61
2023-06-10T00:17:42.040Z,17.64
2023-06-10T00:20:13.146Z,17.58
2023-06-10T00:22:43.022Z,17.45
2023-06-10T00:25:12.221Z,17.47
2023-06-10T00:27:41.983Z,17.44
2023-06-10T00:30:11.058Z,17.45
2023-06-10T00:32:39.452Z,17.46
2023-06-10T00:35:09.224Z,17.45
2023-06-10T00:37:37.725Z,17.42
2023-06-10T00:40:06.984Z,17.41
2023-06-10T00:42:35.247Z,17.29
2023-06-10T00:45:05.144Z,17.33
2023-06-10T00:47:33.932Z,17.28
2023-06-10T00:50:02.254Z,17.24
2023-06-10T00:52:31.912Z,17.19
2023-06-10T00:55:00.666Z,17.19
2023-06-10T00:57:30.543Z,17.16
2023-06-10T00:59:59.744Z,17.14
2023-06-10T01:02:30.262Z,17.14
2023-06-10T01:05:02.705Z,17.08
2023-06-10T01:07:38.408Z,17.12
2023-06-10T01:10:14.197Z,17.06
2023-06-10T01:12:49.820Z,16.98
2023-06-10T01:15:19.430Z,17.01
2023-06-10T01:18:03.677Z,17.02
2023-06-10T01:20:34.993Z,17.00
2023-06-10T01:23:05.283Z,17.00
2023-06-10T01:25:37.284Z,16.96
2023-06-10T01:28:09.280Z,16.85
2023-06-10T01:30:44.879Z,16.91
2023-06-10T01:33:15.422Z,16.88
2023-06-10T01:35:46.277Z,16.89
2023-06-10T01:38:16.591Z,16.84
2023-06-10T01:40:45.371Z,16.83
2023-06-10T01:43:13.910Z,16.83
2023-06-10T01:45:42.055Z,16.83
2023-06-10T01:48:10.149Z,16.75
2023-06-10T01:50:38.304Z,16.78
2023-06-10T01:53:07.413Z,16.64
2023-06-10T01:55:39.358Z,16.71
2023-06-10T01:58:07.467Z,16.70
2023-06-10T02:00:35.874Z,16.70
2023-06-10T02:03:04.162Z,16.64
2023-06-10T02:05:32.374Z,16.63
2023-06-10T02:08:00.669Z,16.57
2023-06-10T02:10:28.939Z,16.57
2023-06-10T02:13:00.517Z,16.54
2023-06-10T02:15:28.719Z,16.49
2023-06-10T02:17:57.065Z,16.50
2023-06-10T02:20:25.142Z,16.44
2023-06-10T02:22:53.262Z,16.42
2023-06-10T02:25:21.549Z,16.39
2023-06-10T02:27:49.636Z,16.42
2023-06-10T02:30:19.908Z,16.33
2023-06-10T02:32:49.314Z,16.32
2023-06-10T02:35:19.432Z,16.27
2023-06-10T02:37:47.597Z,16.28
2023-06-10T02:40:16.592Z,16.21
2023-06-10T02:42:45.297Z,16.17
2023-06-10T02:45:13.606Z,16.17
2023-06-10T02:47:45.674Z,16.11
2023-06-10T02:50:14.737Z,16.11
2023-06-10T02:52:56.068Z,16.05
2023-06-10T02:55:27.742Z,15.92
2023-06-10T02:58:01.682Z,15.90
2023-06-10T03:00:30.775Z,15.91
2023-06-10T03:03:04.549Z,15.79
2023-06-10T03:05:37.572Z,15.76
2023-06-10T03:08:07.907Z,15.75
2023-06-10T03:10:39.105Z,15.70
2023-06-10T03:13:07.219Z,15.65
2023-06-10T03:15:37.523Z,15.63
2023-06-10T03:18:10.365Z,15.58
2023-06-10T03:20:40.941Z,15.58
2023-06-10T03:23:11.720Z,15.55
2023-06-10T03:25:40.052Z,15.45
2023-06-10T03:28:08.306Z,15.42
2023-06-10T03:30:37.841Z,15.42
2023-06-10T03:33:06.405Z,15.40
2023-06-10T03:35:36.340Z,15.36
2023-06-10T03:38:06.179Z,15.34
2023-06-10T03:40:34.337Z,15.27
2023-06-10T03:43:03.306Z,15.25
2023-06-10T03:45:33.181Z,15.22
2023-06-10T03:48:02.473Z,15.22
2023-06-10T03:50:39.192Z,15.14
2023-06-10T03:53:07.363Z,15.12
2023-06-10T03:55:36.013Z,15.15
2023-06-10T03:58:04.213Z,15.12
2023-06-10T04:00:34.475Z,15.09
2023-06-10T04:03:02.619Z,15.11
2023-06-10T04:05:36.353Z,15.04
2023-06-10T04:08:06.271Z,15.05
2023-06-10T04:10:35.543Z,15.07
2023-06-10T04:13:04.414Z,15.02
2023-06-10T04:15:38.628Z,14.95
2023-06-10T04:18:10.892Z,14.97
2023-06-10T04:20:39.081Z,14.96
2023-06-10T04:23:08.706Z,14.92
2023-06-10T04:25:36.855Z,14.95
2023-06-10T04:28:05.427Z,14.95
2023-06-10T04:30:34.503Z,14.99
2023-06-10T04:33:03.259Z,14.92
2023-06-10T04:35:31.581Z,14.94
2023-06-10T04:38:03.925Z,14.99
2023-06-10T04:40:34.097Z,14.96
2023-06-10T04:43:02.960Z,14.93
2023-06-10T04:45:31.082Z,14.97
2023-06-10T04:47:59.984Z,14.96
2023-06-10T04:50:29.472Z,15.01
2023-06-10T04:52:58.281Z,14.99
2023-06-10T04:55:26.672Z,15.02
2023-06-10T04:57:56.232Z,15.07
2023-06-10T05:00:24.664Z,15.06
2023-06-10T05:02:53.209Z,15.10
2023-06-10T05:05:21.626Z,15.13
2023-06-10T05:07:49.613Z,15.13
2023-06-10T05:10:17.765Z,15.16
2023-06-10T05:12:45.760Z,15.20
2023-06-10T05:15:15.209Z,15.22
2023-06-10T05:17:43.328Z,15.23
2023-06-10T05:20:12.456Z,15.28
2023-06-10T05:22:40.467Z,15.32
2023-06-10T05:25:09.780Z,15.36
2023-06-10T05:27:39.062Z,15.41
2023-06-10T05:30:08.691Z,15.45
2023-06-10T05:32:38.226Z,15.46
2023-06-10T05:35:07.763Z,15.58
2023-06-10T05:37:37.913Z,15.62
2023-06-10T05:40:07.382Z,15.66
2023-06-10T05:42:35.396Z,15.73
2023-06-10T05:45:03.957Z,15.81
2023-06-10T05:47:32.394Z,15.85
2023-06-10T05:50:01.959Z,15.93
2023-06-10T05:52:30.088Z,15.90
2023-06-10T05:54:58.183Z,15.89
2023-06-10T05:57:26.244Z,15.95
2023-06-10T05:59:54.265Z,16.00
2023-06-10T06:02:22.409Z,15.98
2023-06-10T06:04:50.567Z,16.07
2023-06-10T06:07:21.746Z,16.10
2023-06-10T06:09:49.985Z,16.25
2023-06-10T06:12:18.041Z,16.31
2023-06-10T06:14:46.230Z,16.25
2023-06-10T06:17:14.305Z,16.29
2023-06-10T06:19:42.360Z,16.39
2023-06-10T06:22:10.350Z,16.38
2023-06-10T06:24:39.979Z,16.52
2023-06-10T06:27:08.318Z,16.59
2023-06-10T06:29:36.290Z,16.67
2023-06-10T06:32:05.176Z,16.67
2023-06-10T06:34:34.550Z,16.77
2023-06-10T06:37:02.616Z,16.81
2023-06-10T06:39:33.242Z,16.97
2023-06-10T06:42:02.755Z,16.98
2023-06-10T06:44:48.796Z,17.05
2023-06-10T06:47:18.921Z,17.13
2023-06-10T06:49:47.022Z,17.24
2023-06-10T06:52:15.333Z,17.31
2023-06-10T06:54:43.641Z,17.40
2023-06-10T06:57:13.068Z,17.51
2023-06-10T06:59:41.121Z,17.64
2023-06-10T07:02:09.263Z,17.66
2023-06-10T07:04:37.325Z,17.78
2023-06-10T07:07:07.383Z,17.82
2023-06-10T07:09:35.441Z,17.83
2023-06-10T07:12:03.593Z,17.98
2023-06-10T07:14:33.011Z,18.10
2023-06-10T07:17:01.107Z,18.16
2023-06-10T07:19:29.138Z,18.27
2023-06-10T07:21:57.208Z,18.39
2023-06-10T07:24:25.488Z,18.50
2023-06-10T07:26:53.509Z,18.49
2023-06-10T07:29:21.591Z,18.51
2023-06-10T07:31:51.056Z,18.70
2023-06-10T07:34:19.172Z,18.91
2023-06-10T07:36:47.246Z,19.03
2023-06-10T07:39:15.383Z,19.15
2023-06-10T07:41:43.448Z,19.46
2023-06-10T07:44:11.610Z,19.68
2023-06-10T07:46:39.651Z,20.00
2023-06-10T07:49:09.193Z,20.21
2023-06-10T07:51:37.785Z,20.54
2023-06-10T07:54:05.954Z,20.70
2023-06-10T07:56:34.069Z,20.75
2023-06-10T07:59:02.295Z,20.98
2023-06-10T08:01:31.241Z,21.60
2023-06-10T08:03:59.642Z,21.55
2023-06-10T08:06:29.324Z,21.83
2023-06-10T08:08:57.328Z,22.13
2023-06-10T08:11:27.036Z,22.59
2023-06-10T08:13:55.052Z,22.46
2023-06-10T08:16:23.243Z,22.79
2023-06-10T08:18:54.900Z,22.61
2023-06-10T08:21:23.798Z,22.83
2023-06-10T08:23:56.705Z,23.09
2023-06-10T08:26:24.878Z,23.10
2023-06-10T08:28:52.922Z,23.16
2023-06-10T08:31:20.951Z,23.67
2023-06-10T08:33:49.079Z,23.41
2023-06-10T08:36:17.375Z,23.87
2023-06-10T08:38:45.885Z,24.13
2023-06-10T08:41:19.758Z,24.04
2023-06-10T08:43:56.199Z,24.02
2023-06-10T08:46:24.498Z,24.27
2023-06-10T08:48:57.511Z,24.61
2023-06-10T08:51:26.752Z,24.79
2023-06-10T08:54:02.954Z,25.10
2023-06-10T08:56:35.032Z,25.39
2023-06-10T08:59:04.246Z,25.42
2023-06-10T09:01:32.764Z,25.59
2023-06-10T09:04:01.735Z,25.81
2023-06-10T09:06:29.908Z,26.12
2023-06-10T09:09:01.737Z,26.26
2023-06-10T09:11:33.723Z,26.38
2023-06-10T09:14:01.780Z,26.37
2023-06-10T09:16:30.530Z,26.37
2023-06-10T09:18:59.911Z,26.57
2023-06-10T09:21:28.167Z,25.95
2023-06-10T09:23:56.409Z,26.38
2023-06-10T09:26:30.271Z,26.21
2023-06-10T09:29:06.308Z,26.57
2023-06-10T09:31:37.676Z,26.33
2023-06-10T09:34:10.864Z,26.13
2023-06-10T09:36:40.061Z,26.37
2023-06-10T09:39:16.560Z,26.52
2023-06-10T09:41:45.651Z,26.58
2023-06-10T09:44:17.038Z,26.81
2023-06-10T09:46:47.413Z,27.28
2023-06-10T09:49:16.047Z,26.99
2023-06-10T09:51:52.451Z,27.00
2023-06-10T09:54:20.663Z,27.28
2023-06-10T09:56:50.612Z,27.36
2023-06-10T09:59:30.434Z,27.70
2023-06-10T10:02:01.792Z,27.77
2023-06-10T10:04:30.754Z,27.58
2023-06-10T10:07:00.912Z,27.77
2023-06-10T10:09:29.217Z,28.04
2023-06-10T10:11:57.798Z,28.27
2023-06-10T10:14:28.340Z,28.15
2023-06-10T10:16:57.805Z,28.36
2023-06-10T10:19:30.801Z,28.61
2023-06-10T10:22:04.682Z,28.91
2023-06-10T10:24:36.207Z,28.94
2023-06-10T10:27:09.804Z,28.82
2023-06-10T10:29:41.606Z,29.14
2023-06-10T10:32:13.381Z,28.97
2023-06-10T10:34:51.034Z,29.43
2023-06-10T10:37:19.818Z,29.59
2023-06-10T10:39:48.196Z,29.62
2023-06-10T10:42:17.752Z,29.48
2023-06-10T10:44:47.593Z,29.54
2023-06-10T10:47:17.559Z,29.87
2023-06-10T10:49:47.219Z,29.85
2023-06-10T10:52:15.744Z,29.93
2023-06-10T10:54:47.594Z,30.23
2023-06-10T10:57:17.516Z,30.20
2023-06-10T10:59:53.310Z,30.02
2023-06-10T11:02:35.152Z,30.34
2023-06-10T11:05:05.298Z,30.25
2023-06-10T11:07:33.575Z,30.19
2023-06-10T11:10:03.088Z,30.12
2023-06-10T11:12:52.391Z,30.28
2023-06-10T11:15:24.119Z,29.74
2023-06-10T11:18:12.403Z,30.24
2023-06-10T11:21:02.195Z,30.46
2023-06-10T11:23:41.272Z,30.48
2023-06-10T11:26:17.313Z,30.23
2023-06-10T11:29:06.186Z,30.59
2023-06-10T11:31:40.245Z,30.60
2023-06-10T11:34:09.569Z,30.78
2023-06-10T11:36:43.333Z,30.93
2023-06-10T11:39:12.108Z,30.63
2023-06-10T11:41:41.440Z,30.85
2023-06-10T11:44:11.214Z,30.83
2023-06-10T11:46:41.039Z,31.13
2023-06-10T11:49:09.075Z,31.47
2023-06-10T11:51:41.664Z,31.75
2023-06-10T11:54:11.491Z,31.28
2023-06-10T11:56:39.576Z,31.84
2023-06-10T11:59:09.241Z,31.89
2023-06-10T12:01:41.440Z,31.85
2023-06-10T12:04:15.061Z,31.78
2023-06-10T12:06:45.266Z,31.89
2023-06-10T12:09:23.578Z,31.23
2023-06-10T12:11:54.017Z,31.67
2023-06-10T12:14:55.288Z,31.67
2023-06-10T12:17:24.946Z,31.70
2023-06-10T12:19:54.474Z,31.98
2023-06-10T12:22:24.467Z,32.37
2023-06-10T12:25:04.166Z,32.06
2023-06-10T12:27:32.975Z,32.04
2023-06-10T12:30:04.680Z,32.09
2023-06-10T12:32:39.506Z,32.72
2023-06-10T12:35:11.016Z,31.90
2023-06-10T12:37:43.516Z,32.33
2023-06-10T12:40:13.293Z,32.43
2023-06-10T12:42:42.766Z,32.58
2023-06-10T12:45:11.923Z,32.50
2023-06-10T12:47:41.282Z,32.41
2023-06-10T12:50:13.237Z,32.22
2023-06-10T12:52:43.365Z,31.83
2023-06-10T12:55:12.318Z,31.78
2023-06-10T12:57:50.177Z,31.53
2023-06-10T13:00:19.685Z,31.68
2023-06-10T13:02:47.939Z,31.32
2023-06-10T13:05:17.991Z,31.47
2023-06-10T13:07:46.862Z,31.41
2023-06-10T13:10:15.756Z,31.38
2023-06-10T13:12:47.972Z,31.12
2023-06-10T13:15:17.334Z,30.95
2023-06-10T13:17:46.851Z,30.67
2023-06-10T13:20:15.261Z,30.68
2023-06-10T13:22:45.061Z,29.99
2023-06-10T13:25:13.520Z,30.20
2023-06-10T13:27:43.306Z,30.27
2023-06-10T13:30:13.235Z,30.01
2023-06-10T13:32:41.564Z,29.87
2023-06-10T13:35:11.035Z,29.86
2023-06-10T13:37:39.493Z,29.94
2023-06-10T13:40:10.818Z,29.69
2023-06-10T13:42:39.145Z,29.62
2023-06-10T13:45:09.051Z,29.48
2023-06-10T13:47:37.238Z,29.68
2023-06-10T13:50:06.043Z,29.65
2023-06-10T13:52:34.139Z,29.42
2023-06-10T13:55:02.241Z,29.32
2023-06-10T13:57:31.844Z,29.30
2023-06-10T14:00:00.098Z,29.24
2023-06-10T14:02:28.751Z,29.21
2023-06-10T14:04:57.236Z,29.14
2023-06-10T14:07:27.179Z,28.97
2023-06-10T14:09:55.462Z,28.85
2023-06-10T14:12:23.580Z,28.87
2023-06-10T14:14:53.129Z,28.82
2023-06-10T14:17:21.450Z,28.68
2023-06-10T14:19:49.563Z,28.63
2023-06-10T14:22:17.690Z,28.69
2023-06-10T14:24:45.977Z,28.46
2023-06-10T14:27:14.231Z,28.58
2023-06-10T14:29:42.564Z,28.53
2023-06-10T14:32:12.170Z,28.37
2023-06-10T14:34:40.478Z,28.37
2023-06-10T14:37:09.258Z,28.35
2023-06-10T14:39:37.736Z,28.37
2023-06-10T14:42:07.386Z,28.26
2023-06-10T14:44:35.606Z,28.21
2023-06-10T14:47:03.834Z,28.28
2023-06-10T14:49:33.333Z,28.20
2023-06-10T14:52:01.399Z,28.22
2023-06-10T14:54:29.628Z,28.00
2023-06-10T14:56:57.763Z,27.84
2023-06-10T14:59:25.935Z,27.98
2023-06-10T15:01:56.948Z,28.02
2023-06-10T15:04:25.143Z,28.03
2023-06-10T15:06:54.602Z,27.94
2023-06-10T15:09:22.833Z,27.87
2023-06-10T15:11:51.027Z,27.99
2023-06-10T15:14:19.194Z,28.00
2023-06-10T15:16:47.482Z,28.02
2023-06-10T15:19:15.807Z,27.95
2023-06-10T15:21:44.040Z,27.94
2023-06-10T15:24:13.746Z,27.95
2023-06-10T15:26:42.066Z,27.94
2023-06-10T15:29:10.478Z,27.87
2023-06-10T15:31:38.849Z,27.97
2023-06-10T15:34:08.098Z,27.93
2023-06-10T15:36:37.490Z,27.82
2023-06-10T15:39:07.818Z,27.84
2023-06-10T15:41:37.525Z,27.81
2023-06-10T15:44:06.136Z,27.64
2023-06-10T15:46:35.609Z,27.60
2023-06-10T15:49:03.971Z,27.56
2023-06-10T15:51:32.207Z,27.69
2023-06-10T15:54:00.830Z,27.48
2023-06-10T15:56:32.785Z,27.52
2023-06-10T15:59:02.252Z,27.53
2023-06-10T16:01:30.602Z,27.57
2023-06-10T16:03:58.815Z,27.67
2023-06-10T16:06:27.472Z,27.74
2023-06-10T16:08:56.240Z,27.66
2023-06-10T16:11:24.524Z,27.64
2023-06-10T16:13:52.688Z,27.78
2023-06-10T16:16:22.182Z,27.69
2023-06-10T16:18:50.400Z,27.83
2023-06-10T16:21:18.518Z,27.98
2023-06-10T16:23:46.723Z,27.95
2023-06-10T16:26:14.968Z,28.09
2023-06-10T16:28:43.087Z,27.87
2023-06-10T16:31:11.370Z,27.97
2023-06-10T16:33:41.223Z,28.10
2023-06-10T16:36:09.637Z,28.56
2023-06-10T16:38:37.662Z,28.78
2023-06-10T16:41:05.884Z,29.27
2023-06-10T16:43:33.982Z,29.33
2023-06-10T16:46:02.249Z,29.32
2023-06-10T16:48:30.590Z,29.51
2023-06-10T16:51:00.052Z,29.30
2023-06-10T16:53:28.230Z,29.98
2023-06-10T16:55:56.441Z,29.36
2023-06-10T16:58:24.929Z,29.72
2023-06-10T17:00:53.948Z,30.02
2023-06-10T17:03:22.026Z,29.84
2023-06-10T17:05:50.158Z,29.75
2023-06-10T17:08:19.524Z,29.96
2023-06-10T17:10:47.608Z,30.29
2023-06-10T17:13:16.175Z,30.69
2023-06-10T17:15:44.785Z,30.27
2023-06-10T17:18:13.094Z,30.25
2023-06-10T17:20:41.494Z,30.60
2023-06-10T17:23:09.877Z,29.95
2023-06-10T17:25:39.644Z,29.84
2023-06-10T17:28:07.716Z,29.49
2023-06-10T17:30:36.023Z,29.62
2023-06-10T17:33:04.485Z,29.42
2023-06-10T17:35:32.816Z,28.54
2023-06-10T17:38:00.973Z,28.33
2023-06-10T17:40:29.099Z,28.05
2023-06-10T17:42:58.791Z,28.29
2023-06-10T17:45:26.900Z,27.71
2023-06-10T17:47:55.028Z,27.94
2023-06-10T17:50:23.271Z,27.81
2023-06-10T17:52:51.340Z,27.71
2023-06-10T17:55:19.461Z,27.58
2023-06-10T17:57:47.639Z,27.13
2023-06-10T18:00:17.978Z,26.83
2023-06-10T18:02:46.437Z,26.68
2023-06-10T18:05:14.960Z,26.61
2023-06-10T18:07:43.297Z,26.67
2023-06-10T18:10:11.997Z,26.60
2023-06-10T18:12:40.513Z,26.36
2023-06-10T18:15:10.316Z,26.30
2023-06-10T18:17:40.033Z,26.21
2023-06-10T18:20:09.566Z,26.02
2023-06-10T18:22:38.360Z,25.87
2023-06-10T18:25:07.149Z,26.01
2023-06-10T18:27:35.989Z,25.78
2023-06-10T18:30:04.377Z,25.86
2023-06-10T18:32:32.688Z,25.74
2023-06-10T18:35:02.167Z,25.59
2023-06-10T18:37:30.259Z,25.46
2023-06-10T18:39:58.641Z,25.56
2023-06-10T18:42:26.840Z,25.46
2023-06-10T18:44:55.027Z,25.54
2023-06-10T18:47:23.268Z,25.32
2023-06-10T18:49:51.509Z,25.32
2023-06-10T18:52:21.396Z,25.30
2023-06-10T18:54:49.615Z,25.09
2023-06-10T18:57:17.722Z,25.04
2023-06-10T18:59:45.783Z,25.00
2023-06-10T19:02:14.088Z,24.81
2023-06-10T19:04:42.417Z,24.94
2023-06-10T19:07:10.855Z,24.76
2023-06-10T19:09:40.653Z,24.80
2023-06-10T19:12:09.850Z,24.70
2023-06-10T19:14:40.831Z,24.51
2023-06-10T19:17:09.944Z,24.46
2023-06-10T19:19:38.526Z,24.45
2023-06-10T19:22:07.326Z,24.51
2023-06-10T19:24:35.478Z,24.40
2023-06-10T19:27:06.518Z,24.14
2023-06-10T19:29:34.808Z,24.23
2023-06-10T19:32:03.473Z,24.16
2023-06-10T19:34:31.699Z,24.05
2023-06-10T19:37:00.043Z,24.02
2023-06-10T19:39:28.384Z,24.02
2023-06-10T19:41:56.659Z,23.97
2023-06-10T19:44:26.449Z,23.98
2023-06-10T19:46:54.943Z,23.73
2023-06-10T19:49:23.257Z,23.61
2023-06-10T19:51:52.285Z,23.63
2023-06-10T19:54:21.162Z,23.69
2023-06-10T19:56:49.435Z,23.63
2023-06-10T19:59:17.538Z,23.53
2023-06-10T20:01:47.111Z,23.49
2023-06-10T20:04:15.725Z,23.33
2023-06-10T20:06:43.889Z,23.32
2023-06-10T20:09:12.397Z,23.35
2023-06-10T20:11:40.538Z,23.39
2023-06-10T20:14:08.843Z,23.32
2023-06-10T20:16:37.069Z,23.20
2023-06-10T20:19:06.720Z,23.20
2023-06-10T20:21:35.152Z,23.04
2023-06-10T20:24:05.884Z,23.07
2023-06-10T20:26:34.847Z,23.09
2023-06-10T20:29:03.594Z,23.10
2023-06-10T20:31:31.947Z,23.09
2023-06-10T20:34:00.204Z,22.92
2023-06-10T20:36:32.411Z,22.98
2023-06-10T20:39:01.136Z,23.00
2023-06-10T20:41:30.255Z,22.91
2023-06-10T20:43:59.215Z,22.84
2023-06-10T20:46:27.433Z,22.73
2023-06-10T20:48:55.524Z,22.61
2023-06-10T20:51:23.902Z,22.62
2023-06-10T20:53:53.385Z,22.55
2023-06-10T20:56:21.600Z,22.56
2023-06-10T20:58:49.845Z,22.45
2023-06-10T21:01:17.973Z,22.44
2023-06-10T21:03:46.163Z,22.34
2023-06-10T21:06:14.571Z,22.24
2023-06-10T21:08:42.987Z,22.31
2023-06-10T21:11:12.807Z,22.21
2023-06-10T21:13:41.760Z,21.98
2023-06-10T21:16:10.055Z,22.04
2023-06-10T21:18:38.596Z,21.99
2023-06-10T21:21:06.999Z,21.97
2023-06-10T21:23:36.003Z,21.97
2023-06-10T21:26:06.532Z,21.85
2023-06-10T21:28:36.035Z,21.87
2023-06-10T21:31:05.251Z,21.90
2023-06-10T21:33:33.656Z,21.78
2023-06-10T21:36:02.330Z,21.66
2023-06-10T21:38:30.393Z,21.68
2023-06-10T21:40:58.467Z,21.66
2023-06-10T21:43:26.772Z,21.62
2023-06-10T21:45:57.581Z,21.49
2023-06-10T21:48:25.819Z,21.53
2023-06-10T21:50:53.936Z,21.38
2023-06-10T21:53:22.073Z,21.43
2023-06-10T21:55:50.046Z,21.38
2023-06-10T21:58:18.157Z,21.34
2023-06-10T22:00:46.368Z,21.22
2023-06-10T22:03:15.946Z,21.23
2023-06-10T22:05:44.448Z,21.24
2023-06-10T22:08:13.607Z,21.15
2023-06-10T22:10:42.530Z,21.25
2023-06-10T22:13:11.359Z,21.21
2023-06-10T22:15:39.657Z,21.17
2023-06-10T22:18:08.181Z,21.14
2023-06-10T22:20:37.610Z,21.11
2023-06-10T22:23:05.623Z,21.12
2023-06-10T22:25:33.716Z,21.14
2023-06-10T22:28:01.928Z,20.99
2023-06-10T22:30:29.887Z,20.94
2023-06-10T22:32:58.018Z,20.80
2023-06-10T22:35:26.177Z,20.79
2023-06-10T22:37:55.568Z,20.86
2023-06-10T22:40:23.709Z,20.62
2023-06-10T22:42:51.833Z,20.73
2023-06-10T22:45:20.114Z,20.69
2023-06-10T22:47:48.427Z,20.71
2023-06-10T22:50:17.416Z,20.63
2023-06-10T22:52:45.498Z,20.64
2023-06-10T22:55:14.993Z,20.64
2023-06-10T22:57:43.114Z,20.66
2023-06-10T23:00:12.528Z,20.59
2023-06-10T23:02:40.633Z,20.64
2023-06-10T23:05:10.689Z,20.64
2023-06-10T23:07:39.098Z,20.56
2023-06-10T23:10:07.945Z,20.56
2023-06-10T23:12:37.485Z,20.51
2023-06-10T23:15:06.644Z,20.56
2023-06-10T23:17:35.996Z,20.48
2023-06-10T23:20:04.429Z,20.50
2023-06-10T23:22:33.185Z,20.50
2023-06-10T23:25:05.064Z,20.52
2023-06-10T23:27:33.241Z,20.41
2023-06-10T23:30:02.670Z,20.42
2023-06-10T23:32:32.320Z,20.39
2023-06-10T23:35:00.528Z,20.32
2023-06-10T23:37:29.170Z,20.32
2023-06-10T23:39:57.229Z,20.27
2023-06-10T23:42:26.333Z,20.30
2023-06-10T23:44:54.817Z,20.19
2023-06-10T23:47:24.651Z,20.18
2023-06-10T23:49:53.153Z,20.13
2023-06-10T23:52:22.688Z,20.14
2023-06-10T23:54:50.880Z,20.09
2023-06-10T23:57:18.954Z,20.14
2023-06-10T23:59:47.315Z,20.07
